createdAt,value
2022-10-09T00:00:39.884Z,54.35
2022-10-09T00:03:09.439Z,54.54
2022-10-09T00:05:37.535Z,54.67
2022-10-09T00:08:05.672Z,54.64
2022-10-09T00:10:33.675Z,54.58
2022-10-09T00:13:02.367Z,54.71
2022-10-09T00:15:30.449Z,54.87
2022-10-09T00:18:08.809Z,54.97
2022-10-09T00:20:38.767Z,54.87
2022-10-09T00:23:06.986Z,55.14
2022-10-09T00:25:38.772Z,55.11
2022-10-09T00:28:06.899Z,55.04
2022-10-09T00:30:35.065Z,55.35
2022-10-09T00:33:03.403Z,54.85
2022-10-09T00:35:32.752Z,55.12
2022-10-09T00:38:01.360Z,55.11
2022-10-09T00:40:29.373Z,54.87
2022-10-09T00:42:57.744Z,55.15
2022-10-09T00:45:26.374Z,55.17
2022-10-09T00:47:55.015Z,55.27
2022-10-09T00:50:23.897Z,55.08
2022-10-09T00:52:54.605Z,55.08
2022-10-09T00:55:23.004Z,55.13
2022-10-09T00:57:51.263Z,55.08
2022-10-09T01:00:19.339Z,55.22
2022-10-09T01:02:47.703Z,55.14
2022-10-09T01:05:17.039Z,55.24
2022-10-09T01:07:48.032Z,55.17
2022-10-09T01:10:25.879Z,55.34
2022-10-09T01:12:56.214Z,55.22
2022-10-09T01:15:27.798Z,55.18
2022-10-09T01:17:59.185Z,55.44
2022-10-09T01:20:35.180Z,55.45
2022-10-09T01:23:40.413Z,55.45
2022-10-09T01:26:16.874Z,55.38
2022-10-09T01:28:48.307Z,55.20
2022-10-09T01:31:16.527Z,55.47
2022-10-09T01:33:44.547Z,55.46
2022-10-09T01:36:12.618Z,55.49
2022-10-09T01:38:40.899Z,55.32
2022-10-09T01:41:11.618Z,55.37
2022-10-09T01:43:39.648Z,55.41
2022-10-09T01:46:22.413Z,55.48
2022-10-09T01:49:08.747Z,55.39
2022-10-09T01:51:40.668Z,55.33
2022-10-09T01:54:08.803Z,55.26
2022-10-09T01:56:36.775Z,55.49
2022-10-09T01:59:06.759Z,55.23
2022-10-09T02:01:37.860Z,55.39
2022-10-09T02:04:08.930Z,55.58
2022-10-09T02:06:37.184Z,55.41
2022-10-09T02:09:06.479Z,55.35
2022-10-09T02:11:34.514Z,55.38
2022-10-09T02:14:02.483Z,55.40
2022-10-09T02:16:37.319Z,55.42
2022-10-09T02:19:11.025Z,55.33
2022-10-09T02:21:43.010Z,55.45
2022-10-09T02:24:16.536Z,55.47
2022-10-09T02:26:46.950Z,55.36
2022-10-09T02:29:15.374Z,55.35
2022-10-09T02:31:46.030Z,55.46
2022-10-09T02:34:18.158Z,55.51
2022-10-09T02:36:46.653Z,55.56
2022-10-09T02:39:16.728Z,55.52
2022-10-09T02:41:44.750Z,55.60
2022-10-09T02:44:12.731Z,55.32
2022-10-09T02:46:41.417Z,55.54
2022-10-09T02:49:09.576Z,55.73
2022-10-09T02:51:41.280Z,55.51
2022-10-09T02:54:18.012Z,55.59
2022-10-09T02:56:46.482Z,55.68
2022-10-09T02:59:14.507Z,55.71
2022-10-09T03:01:42.748Z,55.56
2022-10-09T03:04:10.808Z,55.69
2022-10-09T03:06:40.171Z,55.71
2022-10-09T03:09:08.499Z,55.58
2022-10-09T03:11:37.520Z,55.48
2022-10-09T03:14:08.767Z,55.86
2022-10-09T03:16:37.095Z,55.53
2022-10-09T03:19:09.500Z,55.76
2022-10-09T03:21:37.641Z,55.47
2022-10-09T03:24:09.519Z,55.50
2022-10-09T03:26:37.573Z,55.62
2022-10-09T03:29:07.975Z,55.66
2022-10-09T03:31:52.014Z,55.69
2022-10-09T03:34:21.672Z,55.81
2022-10-09T03:36:50.280Z,55.81
2022-10-09T03:39:19.791Z,56.05
2022-10-09T03:41:47.838Z,55.83
2022-10-09T03:44:18.491Z,56.02
2022-10-09T03:46:46.756Z,55.67
2022-10-09T03:49:18.727Z,55.84
2022-10-09T03:51:46.762Z,55.48
2022-10-09T03:54:14.810Z,55.69
2022-10-09T03:56:44.318Z,55.76
2022-10-09T03:59:12.464Z,55.89
2022-10-09T04:01:40.499Z,56.33
2022-10-09T04:04:08.444Z,56.26
2022-10-09T04:06:36.411Z,56.41
2022-10-09T04:09:04.466Z,56.50
2022-10-09T04:11:33.558Z,56.50
2022-10-09T04:14:02.938Z,56.38
2022-10-09T04:16:31.019Z,56.30
2022-10-09T04:18:59.574Z,56.60
2022-10-09T04:21:29.863Z,56.41
2022-10-09T04:23:57.877Z,56.25
2022-10-09T04:26:25.884Z,56.05
2022-10-09T04:28:55.044Z,55.87
2022-10-09T04:31:24.534Z,56.29
2022-10-09T04:33:55.843Z,56.40
2022-10-09T04:36:23.965Z,56.62
2022-10-09T04:38:55.140Z,56.75
2022-10-09T04:41:23.252Z,56.51
2022-10-09T04:43:55.344Z,56.85
2022-10-09T04:46:24.946Z,56.96
2022-10-09T04:48:52.935Z,56.61
2022-10-09T04:51:20.957Z,56.85
2022-10-09T04:53:49.240Z,56.61
2022-10-09T04:56:18.431Z,56.75
2022-10-09T04:58:46.599Z,56.77
2022-10-09T05:01:16.457Z,56.59
2022-10-09T05:03:46.015Z,56.97
2022-10-09T05:07:42.905Z,56.94
2022-10-09T05:10:11.222Z,57.12
2022-10-09T05:12:39.166Z,57.38
2022-10-09T05:15:08.262Z,57.44
2022-10-09T05:17:36.377Z,57.42
2022-10-09T05:20:06.425Z,57.50
2022-10-09T05:22:34.385Z,57.59
2022-10-09T05:25:03.514Z,57.90
2022-10-09T05:27:31.638Z,57.74
2022-10-09T05:29:59.868Z,58.14
2022-10-09T05:32:27.850Z,58.15
2022-10-09T05:34:55.971Z,58.22
2022-10-09T05:37:25.362Z,58.14
2022-10-09T05:39:53.427Z,58.50
2022-10-09T05:42:22.592Z,58.52
2022-10-09T05:44:50.908Z,58.58
2022-10-09T05:47:21.636Z,58.92
2022-10-09T05:49:49.637Z,58.75
2022-10-09T05:52:17.596Z,58.77
2022-10-09T05:54:46.983Z,58.83
2022-10-09T05:57:15.117Z,58.78
2022-10-09T05:59:43.089Z,58.92
2022-10-09T06:02:11.178Z,58.82
2022-10-09T06:04:42.130Z,58.95
2022-10-09T06:07:10.196Z,58.96
2022-10-09T06:09:38.172Z,59.13
2022-10-09T06:12:08.027Z,59.14
2022-10-09T06:14:36.023Z,59.20
2022-10-09T06:17:04.099Z,59.23
2022-10-09T06:19:32.156Z,59.16
2022-10-09T06:22:02.632Z,59.18
2022-10-09T06:24:36.765Z,59.32
2022-10-09T06:27:04.949Z,59.30
2022-10-09T06:29:34.416Z,59.14
2022-10-09T06:32:02.485Z,59.27
2022-10-09T06:34:30.418Z,59.24
2022-10-09T06:36:58.531Z,59.06
2022-10-09T06:39:27.508Z,59.28
2022-10-09T06:41:58.945Z,59.23
2022-10-09T06:44:55.090Z,59.36
2022-10-09T06:47:24.753Z,59.34
2022-10-09T06:49:52.999Z,59.35
2022-10-09T06:52:21.745Z,59.39
2022-10-09T06:54:49.871Z,59.37
2022-10-09T06:57:17.864Z,59.31
2022-10-09T06:59:46.038Z,59.55
2022-10-09T07:02:15.593Z,59.47
2022-10-09T07:04:43.672Z,59.48
2022-10-09T07:07:11.678Z,59.46
2022-10-09T07:09:40.942Z,59.30
2022-10-09T07:12:09.045Z,59.45
2022-10-09T07:14:40.730Z,59.20
2022-10-09T07:17:09.326Z,59.45
2022-10-09T07:19:38.932Z,59.34
2022-10-09T07:22:11.340Z,59.38
2022-10-09T07:24:39.495Z,59.36
2022-10-09T07:27:07.494Z,59.38
2022-10-09T07:29:35.486Z,59.28
2022-10-09T07:32:06.984Z,59.28
2022-10-09T07:34:39.494Z,59.32
2022-10-09T07:37:07.450Z,59.13
2022-10-09T07:39:36.445Z,59.05
2022-10-09T07:42:04.775Z,59.18
2022-10-09T07:44:32.949Z,59.24
2022-10-09T07:47:00.999Z,59.27
2022-10-09T07:49:29.078Z,59.18
2022-10-09T07:52:00.794Z,59.20
2022-10-09T07:54:28.799Z,59.21
2022-10-09T07:56:57.014Z,59.17
2022-10-09T07:59:25.146Z,59.21
2022-10-09T08:01:53.217Z,59.39
2022-10-09T08:04:27.103Z,59.27
2022-10-09T08:06:58.299Z,59.37
2022-10-09T08:09:27.837Z,59.37
2022-10-09T08:11:55.971Z,59.44
2022-10-09T08:14:28.082Z,59.45
2022-10-09T08:16:56.046Z,59.42
2022-10-09T08:19:24.091Z,59.36
2022-10-09T08:21:56.732Z,59.23
2022-10-09T08:24:28.638Z,59.28
2022-10-09T08:26:56.599Z,59.23
2022-10-09T08:29:25.858Z,59.23
2022-10-09T08:31:54.459Z,59.28
2022-10-09T08:34:22.460Z,59.21
2022-10-09T08:36:51.818Z,59.06
2022-10-09T08:39:21.371Z,59.16
2022-10-09T08:41:52.826Z,59.12
2022-10-09T08:44:22.108Z,58.93
2022-10-09T08:46:59.644Z,58.90
2022-10-09T08:49:33.305Z,58.73
2022-10-09T08:52:06.965Z,58.58
2022-10-09T08:54:37.267Z,58.42
2022-10-09T08:57:14.978Z,58.06
2022-10-09T08:59:45.967Z,57.98
2022-10-09T09:02:25.758Z,58.10
2022-10-09T09:05:00.829Z,58.01
2022-10-09T09:07:32.555Z,57.93
2022-10-09T09:10:10.515Z,57.86
2022-10-09T09:12:45.623Z,57.65
2022-10-09T09:15:25.434Z,57.59
2022-10-09T09:17:55.602Z,57.23
2022-10-09T09:20:26.290Z,56.80
2022-10-09T09:22:59.394Z,56.45
2022-10-09T09:25:28.800Z,56.43
2022-10-09T09:28:01.547Z,56.35
2022-10-09T09:30:30.759Z,56.22
2022-10-09T09:33:23.310Z,55.80
2022-10-09T09:35:53.927Z,55.70
2022-10-09T09:38:22.397Z,55.82
2022-10-09T09:40:50.849Z,55.53
2022-10-09T09:43:24.318Z,55.76
2022-10-09T09:45:53.949Z,55.71
2022-10-09T09:48:28.168Z,55.70
2022-10-09T09:53:42.029Z,55.28
2022-10-09T09:56:10.261Z,55.21
2022-10-09T09:58:40.486Z,54.78
2022-10-09T10:01:08.739Z,54.53
2022-10-09T10:03:36.948Z,54.70
2022-10-09T10:06:05.279Z,54.17
2022-10-09T10:08:35.331Z,53.39
2022-10-09T10:11:04.502Z,52.30
2022-10-09T10:13:35.845Z,52.27
2022-10-09T10:16:06.313Z,52.02
2022-10-09T10:18:39.053Z,51.57
2022-10-09T10:21:11.672Z,51.90
2022-10-09T10:23:41.909Z,51.35
2022-10-09T10:26:25.471Z,50.75
2022-10-09T10:28:54.855Z,50.60
2022-10-09T10:31:35.247Z,50.36
2022-10-09T10:34:03.410Z,50.90
2022-10-09T10:36:31.804Z,50.20
2022-10-09T10:39:01.515Z,50.39
2022-10-09T10:41:34.045Z,49.78
2022-10-09T10:44:04.864Z,49.74
2022-10-09T10:46:38.507Z,49.71
2022-10-09T10:49:08.592Z,49.52
2022-10-09T10:51:51.696Z,48.53
2022-10-09T10:54:25.806Z,47.78
2022-10-09T10:56:57.784Z,46.18
2022-10-09T11:02:23.909Z,44.81
2022-10-09T11:04:53.543Z,45.23
2022-10-09T11:07:25.257Z,44.83
2022-10-09T11:09:58.152Z,45.63
2022-10-09T11:12:47.439Z,44.68
2022-10-09T11:15:21.216Z,44.93
2022-10-09T11:17:53.940Z,44.56
2022-10-09T11:20:40.080Z,44.01
2022-10-09T11:23:10.883Z,43.85
2022-10-09T11:25:42.436Z,43.91
2022-10-09T11:28:12.797Z,43.84
2022-10-09T11:30:43.241Z,43.53
2022-10-09T11:33:22.813Z,43.55
2022-10-09T11:35:53.367Z,43.04
2022-10-09T11:38:25.826Z,43.46
2022-10-09T11:40:54.152Z,43.44
2022-10-09T11:43:40.463Z,43.81
2022-10-09T11:46:10.398Z,43.26
2022-10-09T11:48:43.749Z,42.97
2022-10-09T11:51:14.036Z,42.89
2022-10-09T11:53:42.077Z,42.80
2022-10-09T11:56:21.366Z,42.75
2022-10-09T11:58:58.524Z,42.50
2022-10-09T12:01:27.959Z,42.25
2022-10-09T12:04:05.619Z,42.77
2022-10-09T12:06:34.006Z,42.83
2022-10-09T12:09:03.158Z,43.00
2022-10-09T12:11:31.632Z,43.14
2022-10-09T12:14:00.953Z,43.69
2022-10-09T12:16:40.503Z,43.44
2022-10-09T12:19:21.233Z,42.86
2022-10-09T12:21:52.138Z,43.14
2022-10-09T12:24:22.184Z,42.72
2022-10-09T12:26:51.691Z,42.60
2022-10-09T12:29:22.954Z,42.80
2022-10-09T12:31:51.976Z,42.54
2022-10-09T12:34:22.371Z,42.94
2022-10-09T12:36:50.560Z,43.08
2022-10-09T12:39:21.196Z,42.81
2022-10-09T12:41:50.343Z,43.12
2022-10-09T12:44:25.458Z,42.31
2022-10-09T12:46:53.531Z,41.97
2022-10-09T12:49:23.932Z,42.33
2022-10-09T12:51:55.337Z,42.06
2022-10-09T12:54:25.578Z,42.05
2022-10-09T12:56:53.776Z,42.13
2022-10-09T12:59:22.020Z,41.93
2022-10-09T13:01:51.247Z,41.82
2022-10-09T13:04:28.463Z,41.72
2022-10-09T13:06:57.040Z,41.75
2022-10-09T13:09:26.280Z,41.39
2022-10-09T13:11:56.135Z,42.06
2022-10-09T13:14:29.590Z,41.69
2022-10-09T13:16:59.097Z,41.62
2022-10-09T13:19:29.608Z,41.69
2022-10-09T13:22:07.837Z,41.89
2022-10-09T13:24:36.642Z,41.76
2022-10-09T13:27:05.502Z,41.64
2022-10-09T13:29:33.756Z,41.75
2022-10-09T13:32:02.996Z,41.98
2022-10-09T13:34:32.374Z,41.80
2022-10-09T13:37:00.583Z,41.89
2022-10-09T13:39:29.879Z,42.16
2022-10-09T13:41:57.964Z,41.75
2022-10-09T13:44:26.384Z,41.84
2022-10-09T13:46:54.489Z,41.58
2022-10-09T13:49:22.669Z,42.04
2022-10-09T13:51:52.122Z,41.48
2022-10-09T13:54:20.158Z,41.29
2022-10-09T13:56:48.455Z,41.03
2022-10-09T13:59:16.778Z,40.69
2022-10-09T14:01:44.845Z,40.76
2022-10-09T14:04:14.125Z,40.83
2022-10-09T14:06:42.584Z,40.11
2022-10-09T14:09:13.413Z,40.56
2022-10-09T14:11:41.421Z,40.84
2022-10-09T14:14:09.489Z,40.43
2022-10-09T14:16:37.850Z,40.59
2022-10-09T14:19:06.141Z,40.63
2022-10-09T14:21:34.593Z,40.26
2022-10-09T14:24:03.614Z,40.29
2022-10-09T14:26:34.132Z,40.53
2022-10-09T14:29:04.003Z,40.37
2022-10-09T14:31:32.267Z,40.04
2022-10-09T14:34:00.419Z,40.29
2022-10-09T14:36:29.126Z,40.06
2022-10-09T14:38:57.188Z,40.62
2022-10-09T14:41:25.503Z,40.54
2022-10-09T14:43:57.791Z,40.69
2022-10-09T14:46:26.099Z,40.84
2022-10-09T14:48:55.101Z,41.13
2022-10-09T14:51:26.182Z,41.12
2022-10-09T14:53:57.695Z,41.40
2022-10-09T14:56:25.715Z,41.35
2022-10-09T14:58:53.840Z,41.76
2022-10-09T15:01:23.588Z,41.62
2022-10-09T15:03:51.911Z,41.90
2022-10-09T15:06:24.123Z,41.98
2022-10-09T15:08:52.726Z,41.86
2022-10-09T15:11:20.905Z,41.92
2022-10-09T15:13:48.892Z,42.11
2022-10-09T15:16:17.796Z,42.11
2022-10-09T15:18:47.457Z,41.75
2022-10-09T15:21:16.749Z,41.64
2022-10-09T15:23:44.863Z,41.60
2022-10-09T15:26:13.479Z,41.56
2022-10-09T15:28:42.540Z,41.73
2022-10-09T15:31:18.200Z,41.77
2022-10-09T15:33:47.579Z,41.54
2022-10-09T15:36:15.691Z,41.64
2022-10-09T15:38:43.673Z,41.70
2022-10-09T15:41:20.300Z,41.86
2022-10-09T15:43:48.395Z,41.82
2022-10-09T15:46:16.442Z,42.50
2022-10-09T15:48:44.495Z,42.12
2022-10-09T15:51:14.018Z,42.64
2022-10-09T15:53:42.331Z,42.31
2022-10-09T15:56:11.018Z,42.54
2022-10-09T15:58:38.967Z,42.48
2022-10-09T16:01:08.077Z,43.09
2022-10-09T16:03:37.203Z,43.23
2022-10-09T16:06:06.758Z,43.21
2022-10-09T16:08:36.252Z,43.48
2022-10-09T16:11:05.643Z,43.50
2022-10-09T16:13:33.694Z,43.90
2022-10-09T16:16:01.656Z,44.01
2022-10-09T16:18:29.822Z,43.97
2022-10-09T16:20:57.825Z,43.70
2022-10-09T16:23:25.782Z,43.86
2022-10-09T16:25:59.241Z,44.06
2022-10-09T16:28:27.533Z,44.05
2022-10-09T16:30:55.529Z,44.25
2022-10-09T16:33:23.491Z,44.36
2022-10-09T16:35:51.509Z,44.67
2022-10-09T16:38:19.649Z,44.49
2022-10-09T16:41:03.523Z,44.86
2022-10-09T16:43:35.163Z,44.98
2022-10-09T16:46:13.360Z,45.06
2022-10-09T16:48:41.583Z,44.91
2022-10-09T16:51:11.145Z,44.86
2022-10-09T16:53:39.091Z,44.88
2022-10-09T16:56:11.234Z,45.22
2022-10-09T16:58:40.829Z,45.27
2022-10-09T17:01:10.269Z,45.50
2022-10-09T17:03:40.525Z,45.37
2022-10-09T17:06:10.236Z,45.74
2022-10-09T17:08:38.317Z,45.56
2022-10-09T17:11:07.968Z,45.64
2022-10-09T17:13:36.017Z,45.90
2022-10-09T17:16:07.392Z,45.88
2022-10-09T17:18:35.539Z,45.80
2022-10-09T17:21:04.236Z,45.98
2022-10-09T17:23:32.155Z,46.21
2022-10-09T17:26:00.542Z,46.16
2022-10-09T17:28:28.630Z,46.21
2022-10-09T17:30:56.580Z,46.38
2022-10-09T17:33:26.032Z,46.53
2022-10-09T17:35:54.362Z,46.53
2022-10-09T17:38:23.425Z,46.68
2022-10-09T17:40:51.426Z,46.82
2022-10-09T17:43:19.439Z,47.03
2022-10-09T17:45:49.474Z,47.17
2022-10-09T17:48:17.765Z,47.14
2022-10-09T17:50:52.895Z,47.21
2022-10-09T17:53:22.644Z,47.24
2022-10-09T17:55:58.119Z,47.53
2022-10-09T17:58:26.248Z,47.39
2022-10-09T18:00:54.582Z,47.21
2022-10-09T18:03:22.616Z,47.42
2022-10-09T18:05:52.340Z,47.46
2022-10-09T18:08:20.529Z,47.53
2022-10-09T18:10:48.498Z,47.40
2022-10-09T18:13:16.541Z,47.61
2022-10-09T18:15:44.842Z,47.64
2022-10-09T18:18:12.801Z,47.74
2022-10-09T18:20:41.907Z,47.66
2022-10-09T18:23:11.328Z,47.70
2022-10-09T18:25:41.787Z,47.84
2022-10-09T18:28:10.515Z,47.82
2022-10-09T18:30:42.306Z,47.95
2022-10-09T18:33:10.590Z,47.84
2022-10-09T18:35:38.662Z,48.02
2022-10-09T18:38:11.044Z,47.98
2022-10-09T18:40:45.197Z,47.99
2022-10-09T18:43:13.535Z,48.28
2022-10-09T18:45:44.123Z,48.26
2022-10-09T18:48:12.196Z,48.28
2022-10-09T18:50:41.197Z,48.28
2022-10-09T18:53:09.193Z,48.44
2022-10-09T18:55:37.123Z,48.34
2022-10-09T18:58:06.483Z,48.40
2022-10-09T19:00:37.044Z,48.44
2022-10-09T19:03:05.361Z,48.61
2022-10-09T19:05:33.313Z,48.57
2022-10-09T19:08:01.573Z,48.66
2022-10-09T19:10:29.713Z,48.86
2022-10-09T19:12:57.749Z,48.82
2022-10-09T19:15:27.119Z,48.86
2022-10-09T19:17:55.191Z,48.97
2022-10-09T19:20:24.771Z,48.96
2022-10-09T19:22:52.819Z,49.00
2022-10-09T19:25:21.038Z,49.13
2022-10-09T19:27:49.333Z,49.00
2022-10-09T19:30:17.973Z,49.11
2022-10-09T19:32:47.663Z,49.15
2022-10-09T19:35:16.210Z,49.20
2022-10-09T19:37:44.186Z,49.26
2022-10-09T19:40:12.242Z,49.18
2022-10-09T19:42:40.200Z,49.39
2022-10-09T19:45:09.389Z,49.46
2022-10-09T19:47:37.749Z,49.59
2022-10-09T19:50:07.753Z,49.51
2022-10-09T19:52:35.717Z,49.57
2022-10-09T19:55:03.791Z,49.50
2022-10-09T19:57:31.708Z,49.63
2022-10-09T19:59:59.684Z,49.78
2022-10-09T20:02:27.746Z,49.73
2022-10-09T20:04:57.364Z,49.79
2022-10-09T20:07:26.769Z,49.83
2022-10-09T20:09:55.170Z,49.84
2022-10-09T20:12:23.132Z,49.98
2022-10-09T20:14:51.087Z,49.92
2022-10-09T20:17:19.061Z,50.09
2022-10-09T20:19:47.035Z,50.27
2022-10-09T20:22:14.976Z,50.60
2022-10-09T20:24:44.289Z,50.68
2022-10-09T20:27:12.248Z,51.17
2022-10-09T20:29:40.541Z,51.26
2022-10-09T20:32:08.696Z,51.45
2022-10-09T20:34:36.726Z,51.67
2022-10-09T20:37:05.094Z,51.86
2022-10-09T20:39:33.057Z,52.12
2022-10-09T20:42:02.458Z,52.15
2022-10-09T20:44:30.425Z,52.28
2022-10-09T20:46:58.406Z,52.44
2022-10-09T20:49:26.372Z,52.68
2022-10-09T20:51:54.941Z,52.94
2022-10-09T20:54:23.093Z,53.01
2022-10-09T20:56:51.126Z,53.21
2022-10-09T20:59:20.837Z,53.14
2022-10-09T21:01:48.766Z,53.41
2022-10-09T21:04:16.743Z,53.46
2022-10-09T21:06:44.686Z,53.74
2022-10-09T21:09:12.580Z,53.88
2022-10-09T21:11:42.754Z,53.96
2022-10-09T21:14:12.224Z,54.28
2022-10-09T21:16:41.733Z,54.42
2022-10-09T21:19:11.544Z,54.50
2022-10-09T21:21:39.485Z,54.62
2022-10-09T21:24:07.619Z,54.82
2022-10-09T21:26:35.963Z,54.70
2022-10-09T21:29:04.690Z,55.07
2022-10-09T21:31:32.975Z,55.21
2022-10-09T21:34:02.578Z,55.33
2022-10-09T21:36:34.012Z,55.58
2022-10-09T21:39:01.982Z,55.57
2022-10-09T21:41:29.898Z,55.79
2022-10-09T21:43:57.912Z,55.66
2022-10-09T21:46:26.083Z,55.60
2022-10-09T21:48:54.246Z,55.66
2022-10-09T21:51:23.588Z,55.65
2022-10-09T21:53:51.527Z,55.70
2022-10-09T21:56:19.454Z,55.72
2022-10-09T21:58:49.138Z,55.90
2022-10-09T22:01:17.354Z,55.83
2022-10-09T22:03:45.355Z,55.82
2022-10-09T22:06:18.624Z,55.58
2022-10-09T22:08:48.956Z,55.70
2022-10-09T22:11:17.072Z,55.75
2022-10-09T22:13:45.050Z,55.97
2022-10-09T22:16:14.724Z,55.89
2022-10-09T22:18:42.939Z,56.02
2022-10-09T22:21:12.244Z,56.00
2022-10-09T22:23:41.917Z,56.02
2022-10-09T22:26:13.248Z,55.90
2022-10-09T22:28:41.484Z,56.00
2022-10-09T22:31:10.250Z,56.08
2022-10-09T22:33:38.830Z,55.89
2022-10-09T22:36:07.836Z,55.91
2022-10-09T22:38:36.425Z,55.76
2022-10-09T22:41:05.926Z,55.91
2022-10-09T22:43:35.585Z,55.98
2022-10-09T22:46:08.126Z,55.92
2022-10-09T22:48:36.091Z,55.84
2022-10-09T22:51:06.106Z,55.88
2022-10-09T22:53:34.485Z,55.90
2022-10-09T22:56:02.758Z,56.08
2022-10-09T22:58:30.996Z,56.09
2022-10-09T23:01:03.371Z,56.33
2022-10-09T23:03:31.775Z,56.19
2022-10-09T23:06:07.289Z,56.21
2022-10-09T23:08:35.252Z,56.24
2022-10-09T23:11:03.226Z,56.44
2022-10-09T23:13:31.306Z,56.52
2022-10-09T23:16:02.054Z,56.46
2022-10-09T23:18:30.099Z,56.64
2022-10-09T23:21:00.218Z,56.56
2022-10-09T23:23:29.621Z,56.53
2022-10-09T23:25:57.536Z,56.37
2022-10-09T23:28:27.694Z,56.57
2022-10-09T23:31:03.508Z,56.68
2022-10-09T23:33:31.461Z,56.69
2022-10-09T23:35:59.415Z,56.70
2022-10-09T23:38:27.453Z,56.86
2022-10-09T23:40:57.538Z,56.79
2022-10-09T23:43:25.603Z,56.69
2022-10-09T23:45:55.370Z,56.56
2022-10-09T23:48:24.709Z,56.70
2022-10-09T23:50:52.799Z,56.63
2022-10-09T23:53:21.858Z,56.72
2022-10-09T23:55:50.037Z,56.67
2022-10-09T23:58:20.897Z,56.44
